Time;durP1;ratioP1;P1;durP2;ratioP2;P2;SDS_P1;SDS_P2;PMS_P1;PMS_P2;Temp;Humidity;BMP_temperature;BMP_pressure;BME280_temperature;BME280_humidity;BME280_pressure;Samples;Min_cycle;Max_cycle;Signal;HPM_P1;HPM_P2
2021/12/10 00:01:32;;;;;;;13.43;6.60;;;4.00;98.90;;;;;;5048540;28;20490;-46
2021/12/10 00:04:02;;;;;;;10.33;6.60;;;4.00;99.00;;;;;;5069851;28;20491;-46
2021/12/10 00:06:32;;;;;;;9.57;5.20;;;4.00;99.20;;;;;;5056704;28;20957;-46
2021/12/10 00:09:05;;;;;;;10.80;5.43;;;4.00;99.20;;;;;;5057248;28;20949;-46
2021/12/10 00:11:37;;;;;;;10.70;6.27;;;4.00;99.00;;;;;;5065278;28;20477;-46
2021/12/10 00:17:26;;;;;;;11.00;6.20;;;4.10;99.00;;;;;;5022322;28;20469;-47
2021/12/10 00:19:57;;;;;;;13.43;5.70;;;4.20;99.10;;;;;;5081573;28;20996;-46
2021/12/10 00:22:33;;;;;;;9.67;5.30;;;4.20;99.00;;;;;;5064805;28;21039;-46
2021/12/10 00:25:01;;;;;;;12.53;5.50;;;4.30;99.00;;;;;;5069266;28;20481;-46
2021/12/10 00:27:31;;;;;;;13.33;6.67;;;4.30;98.80;;;;;;5065603;28;21047;-46
2021/12/10 00:30:05;;;;;;;6.93;4.87;;;4.40;98.40;;;;;;5084741;28;20539;-46
2021/12/10 00:32:36;;;;;;;7.73;4.97;;;4.40;98.60;;;;;;5079561;28;20477;-46
2021/12/10 00:35:07;;;;;;;8.90;5.37;;;4.30;98.40;;;;;;5058093;28;20483;-46
2021/12/10 00:37:34;;;;;;;8.40;4.90;;;4.30;98.30;;;;;;5090628;28;20958;-46
2021/12/10 00:40:04;;;;;;;10.13;6.07;;;4.30;98.30;;;;;;5061940;28;20480;-46
2021/12/10 00:42:37;;;;;;;8.90;5.77;;;4.20;98.40;;;;;;5046057;28;20483;-46
2021/12/10 00:45:07;;;;;;;11.70;5.60;;;4.20;98.80;;;;;;5069852;28;20964;-46
2021/12/10 00:47:35;;;;;;;9.50;5.33;;;4.20;98.40;;;;;;5062907;28;20548;-47
2021/12/10 00:50:02;;;;;;;9.27;6.10;;;4.20;98.30;;;;;;5061272;28;20548;-46
2021/12/10 00:52:29;;;;;;;7.83;5.43;;;4.20;98.40;;;;;;5061323;28;20484;-46
2021/12/10 00:54:56;;;;;;;7.57;5.20;;;4.20;98.40;;;;;;5064161;28;20495;-46
2021/12/10 00:57:24;;;;;;;10.50;6.83;;;4.10;98.50;;;;;;5064862;28;20487;-47
2021/12/10 00:59:52;;;;;;;9.20;5.17;;;4.10;98.40;;;;;;5064956;28;20475;-46
2021/12/10 01:02:22;;;;;;;11.10;5.33;;;4.00;98.10;;;;;;5056871;28;20509;-47
2021/12/10 01:04:54;;;;;;;11.27;5.10;;;4.00;98.30;;;;;;5073721;28;20526;-47
2021/12/10 01:07:23;;;;;;;9.53;4.47;;;4.00;98.50;;;;;;5050850;28;20949;-46
2021/12/10 01:09:53;;;;;;;7.63;4.67;;;4.00;98.40;;;;;;5065229;28;20525;-48
2021/12/10 01:12:37;;;;;;;6.00;4.23;;;4.00;98.40;;;;;;5061723;28;20475;-47
2021/12/10 01:15:39;;;;;;;12.23;4.60;;;4.10;98.50;;;;;;5063748;28;20562;-47
2021/12/10 01:23:50;;;;;;;9.10;5.63;;;3.90;98.40;;;;;;5062943;28;20572;-47
2021/12/10 01:26:36;;;;;;;12.40;6.50;;;3.90;98.50;;;;;;5060291;28;20463;-49
2021/12/10 01:29:05;;;;;;;9.70;4.80;;;3.90;98.40;;;;;;5064346;28;20562;-47
2021/12/10 01:31:32;;;;;;;8.50;5.90;;;3.90;98.30;;;;;;5060847;28;20488;-47
2021/12/10 01:33:59;;;;;;;6.67;4.97;;;3.90;98.40;;;;;;5059906;28;20483;-46
2021/12/10 01:36:26;;;;;;;12.10;5.33;;;3.90;98.10;;;;;;5062778;28;20472;-46
2021/12/10 01:38:54;;;;;;;9.17;4.53;;;3.70;97.90;;;;;;5061806;28;20948;-47
2021/12/10 01:41:24;;;;;;;5.90;3.80;;;3.60;98.10;;;;;;5062470;28;20471;-47
2021/12/10 01:43:52;;;;;;;10.40;5.00;;;3.50;98.40;;;;;;5063273;28;20475;-46
2021/12/10 01:46:27;;;;;;;5.67;4.30;;;3.40;98.60;;;;;;5062746;28;20476;-47
2021/12/10 01:48:57;;;;;;;12.53;4.70;;;3.40;98.90;;;;;;5066018;28;20938;-46
2021/12/10 01:51:29;;;;;;;12.50;5.10;;;3.40;99.10;;;;;;5052845;28;20498;-46
2021/12/10 01:54:08;;;;;;;11.37;6.20;;;3.50;99.10;;;;;;5050989;28;20471;-46
2021/12/10 01:56:37;;;;;;;7.80;5.80;;;3.60;99.00;;;;;;5059112;28;20471;-47
2021/12/10 01:59:06;;;;;;;19.07;6.87;;;3.60;98.60;;;;;;5063753;28;20483;-47
2021/12/10 02:01:41;;;;;;;12.73;6.70;;;3.60;98.60;;;;;;5060616;28;20486;-47
2021/12/10 02:04:10;;;;;;;8.47;6.07;;;3.60;98.40;;;;;;5059366;28;20485;-46
2021/12/10 02:06:38;;;;;;;10.03;5.87;;;3.60;98.40;;;;;;5060931;28;20983;-47
2021/12/10 02:09:06;;;;;;;8.73;4.90;;;3.50;98.40;;;;;;5063413;28;20483;-46
2021/12/10 02:11:33;;;;;;;7.47;4.93;;;3.60;98.50;;;;;;5055105;28;20484;-47
2021/12/10 02:14:00;;;;;;;8.20;5.07;;;3.50;98.30;;;;;;5057394;28;20486;-46
2021/12/10 02:16:27;;;;;;;13.27;7.20;;;3.60;98.30;;;;;;5068856;28;20533;-46
2021/12/10 02:18:55;;;;;;;17.33;8.20;;;3.50;98.20;;;;;;5070393;28;20484;-46
2021/12/10 02:21:26;;;;;;;15.00;9.03;;;3.50;98.30;;;;;;5059511;28;20475;-46
2021/12/10 02:23:56;;;;;;;19.67;7.73;;;3.50;98.30;;;;;;5064138;28;20535;-46
2021/12/10 02:26:25;;;;;;;14.37;7.97;;;3.40;98.10;;;;;;5057804;28;20979;-46
2021/12/10 02:28:52;;;;;;;12.10;7.47;;;3.40;98.20;;;;;;5062254;28;20492;-46
2021/12/10 02:31:19;;;;;;;20.80;10.27;;;3.20;98.20;;;;;;5059984;28;21183;-46
2021/12/10 02:33:46;;;;;;;13.63;6.70;;;3.00;98.20;;;;;;5059942;28;20489;-46
2021/12/10 02:36:14;;;;;;;9.60;5.47;;;2.80;98.90;;;;;;5060269;28;20483;-46
2021/12/10 02:38:44;;;;;;;18.67;5.63;;;2.70;99.20;;;;;;5057945;28;20558;-46
2021/12/10 02:41:11;;;;;;;10.70;8.37;;;2.70;99.40;;;;;;5060084;28;20897;-46
2021/12/10 02:43:38;;;;;;;19.10;8.40;;;2.80;99.30;;;;;;5061581;28;20818;-46
2021/12/10 02:49:28;;;;;;;15.07;7.30;;;2.90;98.50;;;;;;5036623;28;20481;-45
2021/12/10 02:51:55;;;;;;;12.93;6.97;;;2.90;98.70;;;;;;5052745;28;20881;-46
2021/12/10 02:54:33;;;;;;;15.20;8.07;;;3.00;98.60;;;;;;5042297;28;20527;-46
2021/12/10 02:57:00;;;;;;;22.50;10.20;;;3.10;98.60;;;;;;5042908;28;20490;-46
2021/12/10 02:59:27;;;;;;;14.60;8.03;;;3.10;98.60;;;;;;5042019;28;20484;-46
2021/12/10 03:01:54;;;;;;;19.27;5.90;;;3.10;98.20;;;;;;5040959;28;20495;-46
2021/12/10 03:04:21;;;;;;;19.93;4.67;;;3.00;97.90;;;;;;5040568;28;20480;-46
2021/12/10 03:06:51;;;;;;;17.77;6.33;;;2.70;97.90;;;;;;5049706;28;20490;-46
2021/12/10 03:09:19;;;;;;;16.83;7.30;;;2.50;98.80;;;;;;5061879;28;20951;-47
2021/12/10 03:11:49;;;;;;;11.70;6.47;;;2.40;98.90;;;;;;5060430;28;20478;-46
2021/12/10 03:14:19;;;;;;;11.83;6.40;;;2.30;99.10;;;;;;5062908;28;21153;-46
2021/12/10 03:16:48;;;;;;;15.80;6.60;;;2.30;99.30;;;;;;5061652;28;20491;-46
2021/12/10 03:19:15;;;;;;;14.83;7.87;;;2.50;99.40;;;;;;5061325;28;20487;-47
2021/12/10 03:21:44;;;;;;;14.00;6.67;;;2.60;99.10;;;;;;5060032;28;20487;-47
2021/12/10 03:24:11;;;;;;;13.33;7.10;;;2.50;98.60;;;;;;5062129;28;20486;-50
2021/12/10 03:26:38;;;;;;;14.37;8.73;;;2.60;98.90;;;;;;5060947;28;21028;-46
2021/12/10 03:29:07;;;;;;;28.97;11.10;;;2.70;98.80;;;;;;5061358;28;20497;-46
2021/12/10 03:31:35;;;;;;;13.00;9.07;;;2.70;98.50;;;;;;5061209;28;20982;-46
2021/12/10 03:34:04;;;;;;;22.80;11.20;;;2.70;98.60;;;;;;5060835;28;20520;-46
2021/12/10 03:36:30;;;;;;;20.40;11.30;;;2.70;98.60;;;;;;5057900;28;21006;-46
2021/12/10 03:38:58;;;;;;;23.90;11.57;;;2.70;98.40;;;;;;5057105;28;20472;-46
2021/12/10 03:41:25;;;;;;;37.70;12.47;;;2.80;98.40;;;;;;5081905;28;20481;-46
2021/12/10 03:43:53;;;;;;;17.40;9.87;;;2.70;98.30;;;;;;5076715;28;21105;-46
2021/12/10 03:46:22;;;;;;;23.37;10.03;;;2.70;98.30;;;;;;5063293;28;20490;-46
2021/12/10 03:48:49;;;;;;;18.80;8.50;;;2.70;98.30;;;;;;5051983;28;20510;-46
2021/12/10 03:51:19;;;;;;;14.60;8.43;;;2.70;98.40;;;;;;5060338;28;21203;-51
2021/12/10 03:53:47;;;;;;;18.53;8.83;;;2.80;98.70;;;;;;5061226;28;20500;-46
2021/12/10 03:56:18;;;;;;;29.50;11.37;;;2.80;98.40;;;;;;5070074;28;20484;-46
2021/12/10 03:58:46;;;;;;;34.70;14.20;;;2.70;98.20;;;;;;5080161;28;20485;-46
2021/12/10 04:04:47;;;;;;;19.23;8.30;;;2.70;98.10;;;;;;5065679;28;20483;-46
2021/12/10 04:07:17;;;;;;;17.10;8.27;;;2.60;98.10;;;;;;5052608;28;20492;-46
2021/12/10 04:09:44;;;;;;;9.53;5.20;;;2.60;98.20;;;;;;5059170;28;20551;-46
2021/12/10 04:12:11;;;;;;;11.57;6.90;;;2.60;98.30;;;;;;5057683;28;20598;-45
2021/12/10 04:14:40;;;;;;;13.87;7.30;;;2.60;98.30;;;;;;5076291;28;20482;-45
2021/12/10 04:17:07;;;;;;;19.67;9.50;;;2.60;98.30;;;;;;5065778;28;20486;-46
2021/12/10 04:19:37;;;;;;;15.87;8.13;;;2.70;98.40;;;;;;5063826;28;20482;-46
2021/12/10 04:22:08;;;;;;;16.17;7.60;;;2.70;98.40;;;;;;5062766;28;20490;-46
2021/12/10 04:24:38;;;;;;;15.80;7.43;;;2.70;98.10;;;;;;5060476;28;20566;-46
2021/12/10 04:27:06;;;;;;;14.20;7.20;;;2.80;98.20;;;;;;5063510;28;20487;-46
2021/12/10 04:29:33;;;;;;;18.93;7.40;;;2.80;98.10;;;;;;5068933;28;20543;-46
2021/12/10 04:32:01;;;;;;;26.17;7.90;;;2.80;98.20;;;;;;5085100;28;20486;-46
2021/12/10 04:34:28;;;;;;;17.47;7.13;;;2.80;98.10;;;;;;5063128;28;20832;-46
2021/12/10 04:36:58;;;;;;;12.57;6.33;;;2.80;98.40;;;;;;5064982;28;20995;-46
2021/12/10 04:39:27;;;;;;;14.33;7.77;;;2.80;98.00;;;;;;5059195;28;20479;-47
2021/12/10 04:41:54;;;;;;;10.23;6.80;;;2.80;98.10;;;;;;5087147;28;20498;-47
2021/12/10 04:44:21;;;;;;;11.60;6.30;;;2.80;98.10;;;;;;5063982;28;20479;-52
2021/12/10 04:46:48;;;;;;;11.50;6.10;;;2.90;98.20;;;;;;5064708;28;20490;-46
2021/12/10 04:49:17;;;;;;;10.47;6.10;;;2.90;98.00;;;;;;5065431;28;20863;-46
2021/12/10 04:51:47;;;;;;;17.13;5.97;;;2.90;98.00;;;;;;5064306;28;20479;-46
2021/12/10 04:54:16;;;;;;;7.00;5.97;;;2.90;98.00;;;;;;5065426;28;20539;-46
2021/12/10 04:56:46;;;;;;;15.83;6.90;;;2.90;97.90;;;;;;5062975;28;20586;-46
2021/12/10 04:59:16;;;;;;;10.10;5.07;;;2.90;97.90;;;;;;5076748;28;20515;-46
2021/12/10 05:01:43;;;;;;;21.77;6.90;;;2.90;97.90;;;;;;5067290;28;20482;-46
2021/12/10 05:04:11;;;;;;;9.03;5.50;;;2.90;97.90;;;;;;5064686;28;20483;-46
2021/12/10 05:06:39;;;;;;;9.93;5.50;;;2.80;97.80;;;;;;5063683;28;21326;-47
2021/12/10 05:09:08;;;;;;;9.60;5.00;;;2.80;98.00;;;;;;5056372;28;20911;-46
2021/12/10 05:11:35;;;;;;;5.70;5.10;;;2.90;98.00;;;;;;5062488;28;20494;-46
2021/12/10 05:14:05;;;;;;;7.97;5.53;;;2.80;97.90;;;;;;5062876;28;20472;-46
2021/12/10 05:16:32;;;;;;;8.00;2.73;;;2.80;97.90;;;;;;5062379;28;20473;-47
2021/12/10 05:19:01;;;;;;;7.77;4.10;;;2.70;97.80;;;;;;5063800;28;20486;-46
2021/12/10 05:21:30;;;;;;;6.17;3.47;;;2.70;98.10;;;;;;5062177;28;20528;-46
2021/12/10 05:23:58;;;;;;;8.70;3.53;;;2.70;98.00;;;;;;5062566;28;20479;-47
2021/12/10 05:26:25;;;;;;;7.63;4.27;;;2.70;97.90;;;;;;5060648;28;21263;-46
2021/12/10 05:28:52;;;;;;;6.87;4.10;;;2.60;97.80;;;;;;5063554;28;20540;-46
2021/12/10 05:31:20;;;;;;;5.17;2.50;;;2.70;98.10;;;;;;5060689;28;20470;-46
2021/12/10 05:33:47;;;;;;;13.20;6.10;;;2.60;97.60;;;;;;5062309;28;20478;-46
2021/12/10 05:36:14;;;;;;;8.23;3.20;;;2.60;97.50;;;;;;5062670;28;20968;-46
2021/12/10 05:38:40;;;;;;;15.83;4.40;;;2.60;97.60;;;;;;5064685;28;20954;-46
2021/12/10 05:41:10;;;;;;;8.00;3.50;;;2.60;97.80;;;;;;5082279;28;20624;-46
2021/12/10 05:43:37;;;;;;;13.80;4.60;;;2.70;97.80;;;;;;5060934;28;20494;-46
2021/12/10 05:46:05;;;;;;;10.00;3.40;;;2.70;97.80;;;;;;5058754;28;20486;-46
2021/12/10 05:48:33;;;;;;;8.50;3.30;;;2.80;97.60;;;;;;5044464;28;20486;-47
2021/12/10 05:54:26;;;;;;;4.70;3.50;;;2.70;97.10;;;;;;5016678;28;20511;-46
2021/12/10 05:56:53;;;;;;;3.97;3.20;;;2.70;97.00;;;;;;5039699;28;20582;-46
2021/12/10 05:59:19;;;;;;;4.50;1.70;;;2.60;97.00;;;;;;5029250;28;20485;-46
2021/12/10 06:01:46;;;;;;;5.97;3.23;;;2.60;96.60;;;;;;5036621;28;20491;-46
2021/12/10 06:04:16;;;;;;;5.90;3.60;;;2.60;96.90;;;;;;5036047;28;20480;-46
2021/12/10 06:06:43;;;;;;;2.70;1.60;;;2.60;96.80;;;;;;5039918;28;20489;-46
2021/12/10 06:09:11;;;;;;;5.67;3.50;;;2.50;96.60;;;;;;5039655;28;20486;-46
2021/12/10 06:11:38;;;;;;;6.73;2.60;;;2.50;96.60;;;;;;5045581;28;20487;-46
2021/12/10 06:14:06;;;;;;;3.80;2.33;;;2.50;96.70;;;;;;5060086;28;20969;-47
2021/12/10 06:16:34;;;;;;;7.60;3.17;;;2.50;96.40;;;;;;5063081;28;22097;-46
2021/12/10 06:19:01;;;;;;;6.77;3.47;;;2.50;96.70;;;;;;5058445;28;20487;-46
2021/12/10 06:21:29;;;;;;;7.07;3.40;;;2.50;96.50;;;;;;5060190;28;20491;-45
2021/12/10 06:23:56;;;;;;;5.00;2.60;;;2.40;96.40;;;;;;5054676;28;20478;-47
2021/12/10 06:26:23;;;;;;;5.60;2.73;;;2.50;96.60;;;;;;5075223;28;20479;-46
2021/12/10 06:28:50;;;;;;;12.67;2.00;;;2.50;96.40;;;;;;5060912;28;20489;-46
2021/12/10 06:31:19;;;;;;;5.80;3.73;;;2.60;96.70;;;;;;5049420;28;20575;-45
2021/12/10 06:33:46;;;;;;;4.60;1.83;;;2.60;96.40;;;;;;5073423;28;20560;-46
2021/12/10 06:36:14;;;;;;;9.77;2.60;;;2.70;96.70;;;;;;5060594;28;20487;-46
2021/12/10 06:38:42;;;;;;;8.73;2.23;;;2.70;96.80;;;;;;5060285;28;20478;-46
2021/12/10 06:41:10;;;;;;;3.90;2.30;;;2.80;96.80;;;;;;5059235;28;21248;-46
2021/12/10 06:43:38;;;;;;;3.80;2.83;;;2.80;96.80;;;;;;5063568;28;21194;-47
2021/12/10 06:46:06;;;;;;;3.90;2.70;;;2.90;96.80;;;;;;5074253;28;20494;-46
2021/12/10 06:48:33;;;;;;;13.13;5.07;;;3.00;96.80;;;;;;5060600;28;20486;-48
2021/12/10 06:51:03;;;;;;;1.83;1.73;;;3.00;96.60;;;;;;5057934;28;21177;-47
2021/12/10 06:53:31;;;;;;;6.13;3.17;;;3.00;96.20;;;;;;5056146;28;20487;-46
2021/12/10 06:55:59;;;;;;;4.53;3.00;;;3.00;96.50;;;;;;5062465;28;20470;-46
2021/12/10 06:58:28;;;;;;;4.53;3.60;;;3.00;96.30;;;;;;5061246;28;20539;-46
2021/12/10 07:01:00;;;;;;;6.90;3.20;;;2.90;96.30;;;;;;5062274;28;20479;-46
2021/12/10 07:03:28;;;;;;;8.03;3.30;;;2.90;96.50;;;;;;5060042;28;21033;-46
2021/12/10 07:05:58;;;;;;;6.23;3.20;;;2.90;96.60;;;;;;5061881;28;20494;-46
2021/12/10 07:08:26;;;;;;;4.20;3.03;;;2.90;96.40;;;;;;5039415;28;20495;-46
2021/12/10 07:10:53;;;;;;;12.27;3.93;;;3.00;96.60;;;;;;5037098;28;20496;-46
2021/12/10 07:13:22;;;;;;;3.93;3.53;;;2.90;96.20;;;;;;5027498;28;21188;-46
2021/12/10 07:15:52;;;;;;;4.77;3.60;;;2.90;96.30;;;;;;5051536;28;20563;-47
2021/12/10 07:18:19;;;;;;;12.87;3.97;;;2.90;96.30;;;;;;5043072;28;20503;-47
2021/12/10 07:20:47;;;;;;;6.00;1.87;;;2.90;96.50;;;;;;5080463;28;20566;-47
2021/12/10 07:23:14;;;;;;;17.23;2.80;;;2.90;96.30;;;;;;5057098;28;20478;-46
2021/12/10 07:25:41;;;;;;;7.53;3.47;;;2.90;96.30;;;;;;5061431;28;20491;-47
2021/12/10 07:28:08;;;;;;;12.10;4.00;;;2.90;96.40;;;;;;5050757;28;20536;-46
2021/12/10 07:30:37;;;;;;;9.10;3.33;;;2.80;96.30;;;;;;5057328;28;20478;-47
2021/12/10 07:33:04;;;;;;;11.20;4.57;;;2.90;96.50;;;;;;5052736;28;20486;-46
2021/12/10 07:35:31;;;;;;;5.73;4.10;;;2.80;96.40;;;;;;5053702;28;21016;-46
2021/12/10 07:37:58;;;;;;;3.17;2.90;;;2.80;96.40;;;;;;5052499;28;21004;-47
2021/12/10 07:40:27;;;;;;;7.33;3.90;;;2.90;96.60;;;;;;5065283;28;21220;-46
2021/12/10 07:42:54;;;;;;;4.93;3.60;;;2.80;96.40;;;;;;5049875;28;20698;-46
2021/12/10 07:48:45;;;;;;;7.13;3.67;;;2.80;96.50;;;;;;5024179;28;20489;-47
2021/12/10 07:51:16;;;;;;;15.30;3.30;;;2.80;96.30;;;;;;5023681;28;21097;-46
2021/12/10 07:53:44;;;;;;;3.73;2.90;;;2.80;96.40;;;;;;5045071;28;20482;-47
2021/12/10 07:56:13;;;;;;;6.40;3.87;;;2.90;96.90;;;;;;5061605;28;20484;-47
2021/12/10 07:58:42;;;;;;;5.80;3.40;;;2.80;96.40;;;;;;5059439;28;20492;-47
2021/12/10 08:01:12;;;;;;;8.73;3.47;;;2.80;96.70;;;;;;5052890;28;20972;-46
2021/12/10 08:03:39;;;;;;;11.90;4.50;;;2.80;96.70;;;;;;5050213;28;21050;-47
2021/12/10 08:06:07;;;;;;;4.73;3.90;;;2.70;96.90;;;;;;5069049;28;20489;-46
2021/12/10 08:08:34;;;;;;;7.03;3.87;;;2.70;97.00;;;;;;5047548;28;20484;-47
2021/12/10 08:11:01;;;;;;;5.87;3.77;;;2.70;97.60;;;;;;5040180;28;20487;-47
2021/12/10 08:13:29;;;;;;;5.90;3.13;;;2.70;97.70;;;;;;5039965;28;20489;-46
2021/12/10 08:15:56;;;;;;;9.53;3.07;;;2.70;97.60;;;;;;5017999;28;20557;-46
2021/12/10 08:18:22;;;;;;;9.80;3.73;;;2.60;97.40;;;;;;5063672;28;20519;-47
2021/12/10 08:20:49;;;;;;;7.57;4.57;;;2.60;97.40;;;;;;5078685;28;20474;-47
2021/12/10 08:23:19;;;;;;;7.47;4.50;;;2.70;97.60;;;;;;5060009;28;20476;-47
2021/12/10 08:25:47;;;;;;;8.00;5.20;;;2.60;97.60;;;;;;5042616;28;20576;-50
2021/12/10 08:28:14;;;;;;;8.13;3.63;;;2.50;97.60;;;;;;5038530;28;20839;-46
2021/12/10 08:30:42;;;;;;;7.87;3.87;;;2.50;97.80;;;;;;5037884;28;20733;-47
2021/12/10 08:33:13;;;;;;;7.40;2.87;;;2.60;98.00;;;;;;5045439;28;20485;-47
2021/12/10 08:35:42;;;;;;;8.37;4.20;;;2.60;98.20;;;;;;5058576;28;20484;-46
2021/12/10 08:38:09;;;;;;;5.77;4.33;;;2.50;98.30;;;;;;5058137;28;20493;-46
2021/12/10 08:40:42;;;;;;;5.53;4.50;;;2.40;98.60;;;;;;5056447;28;20478;-45
2021/12/10 08:43:08;;;;;;;8.77;4.10;;;2.30;99.00;;;;;;5057374;28;21128;-46
2021/12/10 08:45:37;;;;;;;3.63;2.60;;;2.30;99.70;;;;;;5048070;28;20489;-46
2021/12/10 08:48:05;;;;;;;4.20;3.63;;;2.10;99.90;;;;;;5060940;28;20478;-46
2021/12/10 08:50:33;;;;;;;7.17;3.00;;;2.00;99.90;;;;;;5077076;28;20531;-46
2021/12/10 08:53:03;;;;;;;9.40;5.63;;;2.00;99.90;;;;;;5063029;28;20548;-46
2021/12/10 08:55:32;;;;;;;8.17;3.83;;;2.00;99.90;;;;;;5056227;28;20521;-46
2021/12/10 08:58:00;;;;;;;4.07;3.67;;;2.20;99.90;;;;;;5057326;28;20494;-46
2021/12/10 09:00:28;;;;;;;11.93;4.70;;;2.10;99.90;;;;;;5049788;28;20511;-46
2021/12/10 09:02:57;;;;;;;4.67;3.23;;;2.20;99.90;;;;;;5049955;28;20488;-46
2021/12/10 09:05:24;;;;;;;7.00;3.40;;;2.20;99.90;;;;;;5056658;28;20609;-46
2021/12/10 09:07:51;;;;;;;5.27;3.90;;;2.30;99.90;;;;;;5057135;28;20510;-47
2021/12/10 09:10:22;;;;;;;12.03;3.50;;;2.30;99.90;;;;;;5056987;28;20996;-46
2021/12/10 09:12:49;;;;;;;4.20;2.70;;;2.30;99.90;;;;;;5046257;28;21028;-47
2021/12/10 09:15:21;;;;;;;3.73;2.67;;;2.20;99.90;;;;;;5068433;28;20470;-46
2021/12/10 09:17:49;;;;;;;2.50;2.17;;;2.20;99.90;;;;;;5058403;28;20542;-48
2021/12/10 09:20:20;;;;;;;4.93;2.47;;;2.30;99.90;;;;;;5060470;28;20875;-46
2021/12/10 09:22:48;;;;;;;3.70;2.50;;;2.40;99.90;;;;;;5032035;28;21023;-47
2021/12/10 09:25:16;;;;;;;2.87;2.40;;;2.30;99.90;;;;;;5040886;28;20489;-47
2021/12/10 09:27:43;;;;;;;4.40;1.73;;;2.30;99.90;;;;;;5050837;28;20753;-47
2021/12/10 09:30:14;;;;;;;3.70;3.30;;;2.20;99.90;;;;;;5054475;28;20528;-46
2021/12/10 09:32:44;;;;;;;5.57;1.67;;;2.10;99.90;;;;;;5052201;28;20485;-47
2021/12/10 09:35:12;;;;;;;5.77;3.60;;;2.10;99.90;;;;;;5042136;28;20978;-46
2021/12/10 09:37:40;;;;;;;3.30;3.10;;;2.10;99.90;;;;;;5073193;28;20504;-47
2021/12/10 09:40:12;;;;;;;1.50;1.23;;;2.10;99.90;;;;;;5067458;28;20591;-46
2021/12/10 09:42:40;;;;;;;5.43;3.00;;;2.10;99.90;;;;;;5041914;28;20514;-47
2021/12/10 09:45:10;;;;;;;2.37;1.90;;;2.10;99.90;;;;;;5035565;28;20486;-46
2021/12/10 09:47:37;;;;;;;3.03;2.60;;;2.20;99.90;;;;;;5063881;28;20489;-46
2021/12/10 09:50:07;;;;;;;4.00;3.60;;;2.20;99.90;;;;;;5029190;28;20480;-46
2021/12/10 09:52:34;;;;;;;3.83;3.27;;;2.20;99.90;;;;;;5057070;27;20491;-48
2021/12/10 09:55:00;;;;;;;6.37;3.70;;;2.20;99.90;;;;;;5042687;28;20488;-45
2021/12/10 09:57:31;;;;;;;2.43;2.23;;;2.30;99.90;;;;;;5026658;28;20482;-46
2021/12/10 09:59:59;;;;;;;4.37;3.60;;;2.30;99.90;;;;;;5050251;28;20548;-46
2021/12/10 10:02:27;;;;;;;2.13;1.83;;;2.30;99.90;;;;;;5022262;28;20534;-45
2021/12/10 10:04:55;;;;;;;2.83;2.27;;;2.30;99.90;;;;;;5036053;28;20488;-45
2021/12/10 10:07:27;;;;;;;2.90;2.60;;;2.40;99.90;;;;;;5040129;28;20490;-46
2021/12/10 10:10:02;;;;;;;3.40;3.10;;;2.30;99.90;;;;;;5055384;28;20486;-45
2021/12/10 10:12:33;;;;;;;4.33;4.03;;;2.30;99.90;;;;;;5060684;28;20518;-45
2021/12/10 10:15:00;;;;;;;4.23;3.80;;;2.20;99.90;;;;;;5062100;28;20930;-45
2021/12/10 10:17:27;;;;;;;4.00;2.97;;;2.30;99.90;;;;;;5045480;28;20490;-46
2021/12/10 10:19:54;;;;;;;4.00;3.63;;;2.10;99.90;;;;;;5054664;28;20942;-45
2021/12/10 10:22:25;;;;;;;4.97;4.57;;;2.20;99.90;;;;;;5054045;28;20556;-45
2021/12/10 10:24:52;;;;;;;2.73;2.50;;;2.10;99.90;;;;;;5017388;28;20902;-45
2021/12/10 10:27:22;;;;;;;4.10;3.13;;;2.20;99.90;;;;;;5061519;28;20487;-45
2021/12/10 10:29:54;;;;;;;5.30;4.90;;;2.20;99.90;;;;;;5047638;28;20924;-44
2021/12/10 10:32:27;;;;;;;3.80;3.40;;;2.20;99.90;;;;;;5038598;28;21064;-45
2021/12/10 10:35:02;;;;;;;4.77;4.37;;;2.20;99.90;;;;;;5055153;28;20482;-44
2021/12/10 10:37:30;;;;;;;4.50;3.30;;;2.30;99.90;;;;;;5036500;28;21038;-44
2021/12/10 10:39:57;;;;;;;4.60;4.20;;;2.20;99.90;;;;;;5022607;28;20920;-44
2021/12/10 10:42:27;;;;;;;5.37;4.90;;;2.30;99.90;;;;;;5055557;28;20996;-45
2021/12/10 10:44:55;;;;;;;4.50;4.10;;;2.30;99.90;;;;;;5053537;28;20953;-44
2021/12/10 10:47:23;;;;;;;5.10;4.60;;;2.40;99.90;;;;;;5035603;28;20487;-44
2021/12/10 10:49:54;;;;;;;4.20;3.87;;;2.40;99.90;;;;;;5034716;28;21120;-46
2021/12/10 10:52:29;;;;;;;4.10;3.80;;;2.40;99.90;;;;;;5034479;28;21007;-45
2021/12/10 10:55:01;;;;;;;4.83;4.50;;;2.40;99.90;;;;;;5030201;28;20485;-45
2021/12/10 10:57:31;;;;;;;4.33;3.93;;;2.40;99.90;;;;;;5034307;28;20514;-45
2021/12/10 11:00:15;;;;;;;3.60;3.30;;;2.50;99.90;;;;;;5034625;28;20962;-47
2021/12/10 11:02:49;;;;;;;4.60;4.20;;;2.50;99.90;;;;;;5033907;28;20984;-46
2021/12/10 11:05:16;;;;;;;4.70;4.30;;;2.50;99.90;;;;;;5062036;28;20471;-46
2021/12/10 11:07:46;;;;;;;4.37;3.97;;;2.50;99.90;;;;;;5059262;28;20492;-47
2021/12/10 11:10:23;;;;;;;4.07;3.50;;;2.60;99.90;;;;;;5073802;28;20491;-46
2021/12/10 11:12:50;;;;;;;4.23;3.83;;;2.60;99.90;;;;;;5062971;28;20478;-46
2021/12/10 11:15:18;;;;;;;3.60;2.67;;;2.70;99.90;;;;;;5051331;28;20505;-47
2021/12/10 11:17:48;;;;;;;4.57;3.97;;;2.80;99.90;;;;;;5022794;28;20483;-46
2021/12/10 11:20:18;;;;;;;2.80;2.20;;;2.80;99.90;;;;;;5022995;28;21292;-46
2021/12/10 11:22:46;;;;;;;4.63;4.23;;;2.80;99.90;;;;;;5051594;28;20793;-46
2021/12/10 11:25:18;;;;;;;3.40;3.20;;;2.80;99.90;;;;;;5052385;28;20894;-47
2021/12/10 11:27:46;;;;;;;5.50;5.00;;;2.70;99.90;;;;;;5063627;28;20535;-46
2021/12/10 11:30:18;;;;;;;3.83;3.53;;;2.70;99.90;;;;;;5074306;28;20512;-47
2021/12/10 11:32:47;;;;;;;4.97;4.50;;;2.80;99.90;;;;;;5071170;28;20843;-47
2021/12/10 11:35:17;;;;;;;4.00;3.60;;;2.80;99.90;;;;;;5038981;28;20493;-47
2021/12/10 11:37:55;;;;;;;4.50;3.83;;;2.80;99.90;;;;;;5053451;28;20912;-47
2021/12/10 11:40:40;;;;;;;2.87;1.97;;;2.80;99.90;;;;;;5049911;28;20479;-51
2021/12/10 11:43:31;;;;;;;4.97;4.47;;;2.90;99.90;;;;;;5043721;28;20477;-47
2021/12/10 11:46:15;;;;;;;4.80;3.00;;;2.90;99.90;;;;;;5060584;28;20510;-48
2021/12/10 11:48:44;;;;;;;4.17;3.77;;;2.90;99.90;;;;;;5051629;28;20494;-47
2021/12/10 11:51:15;;;;;;;4.20;3.80;;;3.10;99.90;;;;;;5050861;28;20503;-47
2021/12/10 11:53:47;;;;;;;4.93;4.13;;;3.10;99.90;;;;;;5045828;28;20538;-47
2021/12/10 11:56:19;;;;;;;4.03;3.40;;;3.30;99.90;;;;;;5048546;28;20944;-47
2021/12/10 11:59:04;;;;;;;4.67;3.80;;;3.30;99.90;;;;;;5047254;28;20717;-47
2021/12/10 12:01:31;;;;;;;5.20;4.70;;;3.40;99.90;;;;;;5064954;28;20566;-47
2021/12/10 12:03:59;;;;;;;6.00;4.23;;;3.40;99.90;;;;;;5071634;28;20514;-47
2021/12/10 12:06:25;;;;;;;5.30;4.90;;;3.50;99.90;;;;;;5066989;28;20475;-48
2021/12/10 12:08:52;;;;;;;4.87;4.37;;;3.40;99.90;;;;;;5051828;28;20975;-47
2021/12/10 12:11:20;;;;;;;3.93;3.60;;;3.50;99.90;;;;;;5051874;28;20502;-47
2021/12/10 12:13:55;;;;;;;5.23;4.17;;;3.70;99.90;;;;;;5052445;28;20590;-48
2021/12/10 12:16:27;;;;;;;4.40;4.00;;;3.70;99.90;;;;;;5050843;28;20509;-48
2021/12/10 12:18:58;;;;;;;4.40;4.00;;;3.70;99.90;;;;;;5040614;28;20495;-47
2021/12/10 12:22:31;;;;;;;6.60;3.37;;;3.80;99.90;;;;;;5040577;28;21095;-47
2021/12/10 12:27:20;;;;;;;5.80;4.47;;;3.90;99.90;;;;;;5050587;28;21154;-47
2021/12/10 12:29:52;;;;;;;5.00;3.93;;;3.80;99.90;;;;;;5057401;28;21037;-48
2021/12/10 12:32:21;;;;;;;4.50;4.20;;;3.80;99.90;;;;;;5055590;28;20557;-47
2021/12/10 12:34:49;;;;;;;3.20;2.90;;;3.80;99.90;;;;;;5046110;28;20898;-47
2021/12/10 12:37:19;;;;;;;4.73;4.27;;;3.80;99.90;;;;;;5061053;28;20478;-47
2021/12/10 12:39:48;;;;;;;5.30;4.67;;;3.80;99.90;;;;;;5050704;28;20485;-47
2021/12/10 12:42:24;;;;;;;4.50;4.07;;;3.80;99.90;;;;;;5072279;28;20473;-47
2021/12/10 12:44:53;;;;;;;4.27;3.90;;;3.80;99.90;;;;;;5049335;28;20490;-48
2021/12/10 12:47:22;;;;;;;5.07;4.57;;;3.80;99.90;;;;;;5054281;28;20475;-47
2021/12/10 12:49:59;;;;;;;10.00;5.87;;;3.80;99.90;;;;;;5052430;28;20483;-48
2021/12/10 12:52:29;;;;;;;5.07;4.30;;;3.70;99.90;;;;;;5062434;28;20484;-47
2021/12/10 12:55:24;;;;;;;5.80;5.30;;;3.50;99.90;;;;;;5071069;28;20557;-50
2021/12/10 12:57:58;;;;;;;4.80;4.40;;;3.50;99.90;;;;;;5074190;28;20476;-48
2021/12/10 13:00:29;;;;;;;4.60;3.23;;;3.50;99.90;;;;;;5072395;28;20485;-46
2021/12/10 13:03:00;;;;;;;3.47;3.17;;;3.30;99.90;;;;;;5073075;28;20799;-47
2021/12/10 13:05:37;;;;;;;3.83;3.53;;;3.30;99.90;;;;;;5068095;28;20489;-47
2021/12/10 13:08:06;;;;;;;3.13;2.20;;;3.30;99.90;;;;;;5053959;28;20482;-47
2021/12/10 13:10:37;;;;;;;4.23;3.10;;;3.30;99.90;;;;;;5041337;28;20471;-47
2021/12/10 13:13:13;;;;;;;4.60;3.57;;;3.30;99.90;;;;;;5054622;28;21042;-47
2021/12/10 13:15:45;;;;;;;6.47;5.03;;;3.40;99.90;;;;;;5060539;28;20510;-47
2021/12/10 13:18:13;;;;;;;3.57;3.27;;;3.40;99.90;;;;;;5054305;28;20481;-47
2021/12/10 13:20:45;;;;;;;3.50;3.20;;;3.40;99.90;;;;;;5044472;28;20483;-47
2021/12/10 13:23:15;;;;;;;4.43;4.03;;;3.40;99.90;;;;;;5024945;28;20478;-47
2021/12/10 13:25:44;;;;;;;3.30;3.10;;;3.40;99.90;;;;;;5040861;28;20488;-47
2021/12/10 13:28:12;;;;;;;4.37;3.17;;;3.40;99.90;;;;;;5043072;28;20979;-47
2021/12/10 13:30:44;;;;;;;3.50;2.70;;;3.40;99.90;;;;;;5048743;28;20492;-47